• Join FlightAware (Why Join?)
  • Login
  • US Flag 
04:47AM EDT


 

Airport Tracker/Info


-or-


 

Live Flight TrackerFlight Track Log ✈ N2299W ✈ 21-Apr-2013 ✈ KXFL - KVQQ

Flight Track Log - Related Links

Times and Time Zones

All times are in EDT time to prevent confusion due to time zone crossing. See the N2299W flight status page for this flight to view local times or setup timezone preferences in your user account.

Time Position Orientation Groundspeed Altitude Reporting Facility
EDT Latitude Longitude Course Direction KTS MPH feet Rate Location/Type
05:01PM 29.4725 -81.1964 291° West 72 83 400  Level Jacksonville Center
05:02PM 29.4764 -81.1894 57° Northeast 72 83 700 540 Climbing Jacksonville Center
05:03PM 29.4867 -81.1678 61° Northeast 76 87 1,200 540 Climbing Jacksonville Center
05:04PM 29.5053 -81.1603 19° North 80 92 1,800 540 Climbing Jacksonville Center
05:05PM 29.5139 -81.1839 293° West 93 107 2,300 480 Climbing Jacksonville Center
05:06PM 29.5247 -81.2100 295° West 94 108 2,800 420 Climbing Jacksonville Center
05:07PM 29.5628 -81.3719 291° West  Level FlightAware Approximate
05:07PM 29.5375 -81.2361 299° West 93 107 3,200  Level Jacksonville Center
05:08PM 29.5506 -81.2644 298° West 95 109 3,700 420 Climbing Jacksonville Center
05:09PM 29.5633 -81.2928 297° West 94 108 4,100 480 Climbing Jacksonville Center
05:10PM 29.5742 -81.3167 298° West 91 105 4,700 420 Climbing Jacksonville Center
05:11PM 29.5892 -81.3450 301° West 87 100 5,000 120 Climbing Jacksonville Center
05:12PM 29.6000 -81.3758 292° West 116 133 5,000  Level Jacksonville Center
05:13PM 29.6169 -81.4089 301° West 122 140 5,000  Level Jacksonville Center
05:13PM 29.6319 -81.4350 303° West 121 139 5,100 60 Climbing Jacksonville Center
05:14PM 29.6469 -81.4708 296° West 130 150 5,200  Climbing Jacksonville Center
05:16PM 29.6661 -81.5039 304° West 124 143 5,100 -120 Descending Jacksonville Center
05:17PM 29.6936 -81.5369 314° West 127 146 5,000 -60 Descending Jacksonville Center
05:18PM 29.7208 -81.5653 318° Northwest 121 139 5,000 -240 Level Jacksonville Center
05:19PM 29.7483 -81.5961 316° Northwest 124 143 4,600 -360 Descending Jacksonville Center
05:20PM 29.7736 -81.6219 318° Northwest 122 140 4,300 -300 Descending Jacksonville Center
05:21PM 29.8011 -81.6456 323° Northwest 116 133 4,000 -180 Descending Jacksonville Center
05:22PM 29.8244 -81.6692 319° Northwest 117 135 4,000  Level Jacksonville Center
05:23PM 29.8392 -81.7050 295° West 125 144 4,000  Level Jacksonville Center
05:24PM 29.8606 -81.7406 305° West 125 144 4,100  Climbing Jacksonville Center
05:25PM 29.8775 -81.7714 302° West 126 145 4,000 -300 Descending Jacksonville Center
05:26PM 29.8967 -81.8097 300° West 130 150 3,600 -420 Descending Jacksonville Center
05:27PM 29.9200 -81.8550 301° West 141 162 3,100 -300 Descending Jacksonville Center
05:28PM 29.9453 -81.8811 318° Northwest 107 123 3,000 -60 Descending Jacksonville Center
05:29PM 29.9722 -81.8808 North 100 115 3,000 -60 Level Jacksonville Center
05:30PM 29.9972 -81.8781 North 99 114 2,900 -180 Descending Jacksonville Center
05:31PM 30.0267 -81.8803 356° North 107 123 2,700 -300 Descending Jacksonville Center
05:32PM 30.0475 -81.8750 12° North 98 113 2,400 -480 Descending Jacksonville Center
05:33PM 30.0850 -81.8772 357° North 101 116 1,800 -360 Descending Jacksonville Center
05:34PM 30.1122 -81.8769 North 92 106 1,700 -300 Descending Jacksonville Center
05:35PM 30.1372 -81.8789 356° North 101 116 1,300 -480 Descending Jacksonville Center
05:36PM 30.1664 -81.8786 360° North 107 123 800 -360 Descending Jacksonville Center
05:37PM 30.1875 -81.8953 326° Northwest 106 122 600 -120 Descending Jacksonville Center
05:38PM 30.2042 -81.9094 324° Northwest 85 98 600  Level Jacksonville Center
05:40PM 30.2188 -81.8772 North  Level Estimated
05:47PM 30.2188 -81.8772 North  Level Estimated